Time;durP1;ratioP1;P1;durP2;ratioP2;P2;SDS_P1;SDS_P2;PMS_P1;PMS_P2;Temp;Humidity;BMP_temperature;BMP_pressure;BME280_temperature;BME280_humidity;BME280_pressure;Samples;Min_cycle;Max_cycle;Signal;HPM_P1;HPM_P2
2023/06/24 00:00:58;;;;;;;20.55;12.65;;;17.20;99.90;;;;;;5043833;28;20446;-73
2023/06/24 00:03:24;;;;;;;20.83;13.95;;;17.20;99.90;;;;;;5026518;28;20030;-72
2023/06/24 00:05:50;;;;;;;22.58;13.68;;;17.10;99.90;;;;;;5044353;28;20032;-72
2023/06/24 00:08:19;;;;;;;21.40;13.80;;;17.10;99.90;;;;;;5044084;28;20854;-72
2023/06/24 00:10:46;;;;;;;21.92;13.45;;;17.10;99.90;;;;;;5044671;28;20456;-73
2023/06/24 00:13:12;;;;;;;21.55;13.15;;;17.10;99.90;;;;;;5026469;28;20030;-72
2023/06/24 00:15:42;;;;;;;22.27;13.68;;;17.00;99.90;;;;;;5044422;28;20060;-73
2023/06/24 00:18:10;;;;;;;23.25;13.63;;;17.00;99.90;;;;;;5026655;28;20060;-73
2023/06/24 00:20:37;;;;;;;19.60;13.35;;;17.00;99.90;;;;;;5043933;28;20049;-70
2023/06/24 00:23:02;;;;;;;27.25;14.48;;;16.90;99.90;;;;;;5044172;28;20025;-72
2023/06/24 00:25:29;;;;;;;24.05;13.43;;;16.90;99.90;;;;;;5044163;28;20033;-73
2023/06/24 00:27:54;;;;;;;23.38;13.23;;;16.90;99.90;;;;;;5026172;28;20037;-71
2023/06/24 00:30:20;;;;;;;26.80;14.73;;;16.80;99.90;;;;;;5026736;28;20021;-72
2023/06/24 00:32:45;;;;;;;20.88;14.20;;;16.80;99.90;;;;;;5026632;28;20036;-73
2023/06/24 00:35:12;;;;;;;24.08;14.98;;;16.70;99.90;;;;;;5042503;28;20078;-73
2023/06/24 00:37:38;;;;;;;22.23;13.57;;;16.70;99.90;;;;;;5044028;28;20029;-73
2023/06/24 00:40:04;;;;;;;23.60;15.27;;;16.80;99.90;;;;;;5043997;28;20072;-70
2023/06/24 00:42:30;;;;;;;24.60;14.35;;;16.70;99.90;;;;;;5044753;28;20026;-73
2023/06/24 00:44:56;;;;;;;25.35;15.20;;;16.60;99.90;;;;;;5047417;28;20030;-73
2023/06/24 00:47:23;;;;;;;20.55;14.80;;;16.60;99.90;;;;;;5048196;28;20060;-72
2023/06/24 00:49:49;;;;;;;24.65;15.25;;;16.60;99.90;;;;;;5029794;28;20029;-73
2023/06/24 00:52:15;;;;;;;20.45;14.40;;;16.60;99.90;;;;;;5047862;28;20089;-73
2023/06/24 00:54:42;;;;;;;21.23;14.93;;;16.50;99.90;;;;;;5047609;28;20462;-73
2023/06/24 00:57:08;;;;;;;20.95;14.63;;;16.50;99.90;;;;;;5047475;28;20037;-72
2023/06/24 00:59:35;;;;;;;22.08;14.48;;;16.50;99.90;;;;;;5047451;28;20089;-71
2023/06/24 01:02:01;;;;;;;24.95;14.98;;;16.40;99.90;;;;;;5047253;28;20038;-73
2023/06/24 01:04:27;;;;;;;23.70;14.93;;;16.40;99.90;;;;;;5047460;28;20026;-72
2023/06/24 01:06:55;;;;;;;23.60;15.70;;;16.30;99.90;;;;;;5047969;28;20033;-73
2023/06/24 01:09:21;;;;;;;19.48;14.07;;;16.40;99.90;;;;;;5047621;28;20029;-73
2023/06/24 01:11:48;;;;;;;25.25;15.63;;;16.30;99.90;;;;;;5047543;28;20432;-72
2023/06/24 01:14:14;;;;;;;22.77;14.57;;;16.30;99.90;;;;;;5047615;28;20896;-73
2023/06/24 01:17:09;;;;;;;23.17;15.32;;;16.30;99.90;;;;;;5029347;28;20104;-72
2023/06/24 01:20:11;;;;;;;25.00;15.38;;;16.30;99.90;;;;;;5047635;28;20041;-72
2023/06/24 01:22:54;;;;;;;26.08;14.95;;;16.20;99.90;;;;;;5047248;28;20025;-73
2023/06/24 01:25:30;;;;;;;24.13;15.32;;;16.20;99.90;;;;;;5029382;28;20390;-73
2023/06/24 01:28:30;;;;;;;24.98;15.57;;;16.20;99.90;;;;;;5047462;28;20098;-72
2023/06/24 01:31:24;;;;;;;22.10;14.70;;;16.20;99.90;;;;;;5046695;28;20025;-75
2023/06/24 01:34:16;;;;;;;23.13;15.07;;;16.20;99.90;;;;;;5029443;28;20029;-72
2023/06/24 01:36:48;;;;;;;21.55;15.13;;;16.10;99.90;;;;;;5047016;28;20036;-71
2023/06/24 01:39:18;;;;;;;21.00;15.70;;;16.10;99.90;;;;;;5046844;28;20053;-76
2023/06/24 01:41:53;;;;;;;27.13;14.43;;;16.10;99.90;;;;;;5037021;28;20052;-72
2023/06/24 01:44:20;;;;;;;26.65;15.45;;;16.00;99.90;;;;;;5029173;28;20021;-73
2023/06/24 01:46:50;;;;;;;24.48;16.08;;;16.10;99.90;;;;;;5028680;28;20022;-72
2023/06/24 01:49:17;;;;;;;21.33;13.77;;;16.00;99.90;;;;;;5029352;28;20044;-74
2023/06/24 01:51:45;;;;;;;28.25;16.45;;;16.00;99.90;;;;;;5046542;28;20052;-71
2023/06/24 01:54:15;;;;;;;24.15;15.35;;;15.90;99.90;;;;;;5045768;28;20049;-72
2023/06/24 01:56:43;;;;;;;27.58;16.30;;;15.90;99.90;;;;;;5046613;28;20029;-72
2023/06/24 01:59:11;;;;;;;30.45;16.55;;;15.90;99.90;;;;;;5046327;28;20037;-71
2023/06/24 02:01:38;;;;;;;30.65;16.95;;;16.00;99.90;;;;;;5046607;28;20103;-73
2023/06/24 02:04:09;;;;;;;25.75;16.60;;;15.90;99.90;;;;;;5028748;28;20021;-73
2023/06/24 02:06:36;;;;;;;27.20;16.38;;;15.80;99.90;;;;;;5046337;28;20100;-71
2023/06/24 02:09:03;;;;;;;23.75;16.20;;;15.80;99.90;;;;;;5046679;28;20104;-72
2023/06/24 02:11:31;;;;;;;25.08;16.00;;;15.80;99.90;;;;;;5028459;28;20026;-73
2023/06/24 02:13:58;;;;;;;32.30;17.92;;;15.70;99.90;;;;;;5046241;28;20048;-72
2023/06/24 02:16:26;;;;;;;28.35;17.67;;;15.60;99.90;;;;;;5046516;28;20026;-71
2023/06/24 02:18:54;;;;;;;28.15;18.15;;;15.70;99.90;;;;;;5046309;28;20026;-74
2023/06/24 02:21:23;;;;;;;27.88;18.58;;;15.70;99.90;;;;;;5046080;28;20516;-73
2023/06/24 02:23:50;;;;;;;29.90;18.88;;;15.70;99.90;;;;;;5046331;28;20101;-75
2023/06/24 02:26:17;;;;;;;29.08;18.02;;;15.70;99.90;;;;;;5046441;28;20030;-74
2023/06/24 02:28:46;;;;;;;26.50;16.75;;;15.80;99.90;;;;;;5046005;28;20022;-73
2023/06/24 02:31:13;;;;;;;26.52;17.60;;;15.60;99.90;;;;;;5045134;28;20032;-71
2023/06/24 02:33:40;;;;;;;33.78;18.33;;;15.60;99.90;;;;;;5046048;28;20036;-72
2023/06/24 02:36:05;;;;;;;25.58;17.83;;;15.70;99.90;;;;;;5045728;28;20026;-73
2023/06/24 02:38:31;;;;;;;26.13;17.50;;;15.70;99.90;;;;;;5044425;28;20041;-73
2023/06/24 02:40:58;;;;;;;28.23;17.88;;;15.60;99.90;;;;;;5045839;28;20042;-74
2023/06/24 02:43:23;;;;;;;29.70;17.60;;;15.60;99.90;;;;;;5044583;28;20032;-73
2023/06/24 02:45:50;;;;;;;28.33;17.50;;;15.70;99.90;;;;;;5046073;28;20072;-73
2023/06/24 02:48:17;;;;;;;27.15;17.52;;;15.60;99.90;;;;;;5045826;28;20085;-72
2023/06/24 02:50:44;;;;;;;26.75;17.70;;;15.60;99.90;;;;;;5045639;28;20029;-72
2023/06/24 02:53:14;;;;;;;29.50;18.17;;;15.50;99.90;;;;;;5028209;28;20045;-72
2023/06/24 02:55:41;;;;;;;26.67;17.08;;;15.50;99.90;;;;;;5027589;28;20021;-74
2023/06/24 02:58:08;;;;;;;29.98;18.95;;;15.50;99.90;;;;;;5045468;28;20029;-73
2023/06/24 03:00:37;;;;;;;31.23;18.70;;;15.40;99.90;;;;;;5045619;28;20089;-71
2023/06/24 03:03:05;;;;;;;31.00;18.08;;;15.50;99.90;;;;;;5027185;28;20029;-73
2023/06/24 03:05:32;;;;;;;26.63;18.02;;;15.50;99.90;;;;;;5045146;28;20025;-74
2023/06/24 03:07:58;;;;;;;29.13;18.02;;;15.50;99.90;;;;;;5045244;28;20022;-74
2023/06/24 03:10:27;;;;;;;26.60;18.20;;;15.40;99.90;;;;;;5045200;28;20060;-73
2023/06/24 03:12:53;;;;;;;29.33;18.98;;;15.40;99.90;;;;;;5045620;28;20032;-74
2023/06/24 03:15:19;;;;;;;34.00;19.85;;;15.40;99.90;;;;;;5045166;28;20402;-73
2023/06/24 03:17:46;;;;;;;32.28;19.42;;;15.30;99.90;;;;;;5045118;28;20108;-74
2023/06/24 03:20:11;;;;;;;34.03;19.85;;;15.40;99.90;;;;;;5045080;28;20063;-73
2023/06/24 03:22:37;;;;;;;29.50;19.95;;;15.40;99.90;;;;;;5027298;28;20406;-73
2023/06/24 03:25:03;;;;;;;30.67;18.48;;;15.30;99.90;;;;;;5044823;28;20029;-71
2023/06/24 03:27:28;;;;;;;33.90;19.05;;;15.30;99.90;;;;;;5045087;28;20025;-74
2023/06/24 03:29:54;;;;;;;35.05;19.80;;;15.40;99.90;;;;;;5044819;28;20022;-74
2023/06/24 03:32:20;;;;;;;36.17;20.27;;;15.30;99.90;;;;;;5027148;28;20030;-72
2023/06/24 03:34:46;;;;;;;29.27;19.83;;;15.40;99.90;;;;;;5027160;28;20129;-72
2023/06/24 03:37:11;;;;;;;32.70;19.88;;;15.30;99.90;;;;;;5044584;28;20067;-72
2023/06/24 03:39:37;;;;;;;32.63;20.33;;;15.40;99.90;;;;;;5044518;28;20054;-71
2023/06/24 03:42:03;;;;;;;39.08;21.85;;;15.30;99.90;;;;;;5044682;28;20036;-74
2023/06/24 03:44:28;;;;;;;34.30;21.50;;;15.30;99.90;;;;;;5044522;28;20025;-73
2023/06/24 03:46:54;;;;;;;33.53;22.10;;;15.40;99.90;;;;;;5043068;28;20045;-73
2023/06/24 03:49:20;;;;;;;34.30;21.38;;;15.30;99.90;;;;;;5044577;28;20025;-73
2023/06/24 03:51:46;;;;;;;38.83;22.02;;;15.30;99.90;;;;;;5044546;28;20033;-72
2023/06/24 03:54:11;;;;;;;40.85;23.08;;;15.30;99.90;;;;;;5044637;28;20033;-72
2023/06/24 03:56:37;;;;;;;34.30;22.58;;;15.30;99.90;;;;;;5044562;28;20025;-72
2023/06/24 03:59:03;;;;;;;36.67;22.08;;;15.30;99.90;;;;;;5042177;28;20043;-71
2023/06/24 04:01:31;;;;;;;37.03;21.42;;;15.30;99.90;;;;;;5044465;28;20037;-72
2023/06/24 04:04:00;;;;;;;31.33;20.70;;;15.40;99.90;;;;;;5026709;28;20053;-72
2023/06/24 04:06:25;;;;;;;33.75;21.50;;;15.40;99.90;;;;;;5044461;28;20032;-74
2023/06/24 04:08:51;;;;;;;35.65;22.85;;;15.40;99.90;;;;;;5044760;28;20030;-73
2023/06/24 04:11:18;;;;;;;33.50;20.92;;;15.40;99.90;;;;;;5043933;28;20017;-74
2023/06/24 04:13:46;;;;;;;39.72;23.15;;;15.50;99.90;;;;;;5044491;28;20032;-73
2023/06/24 04:16:11;;;;;;;34.85;22.75;;;15.50;99.90;;;;;;5044177;28;20446;-73
2023/06/24 04:18:39;;;;;;;40.83;23.10;;;15.50;99.90;;;;;;5042581;28;20071;-73
2023/06/24 04:21:06;;;;;;;39.67;22.30;;;15.50;99.90;;;;;;5043925;28;20096;-72
2023/06/24 04:23:32;;;;;;;40.17;22.13;;;15.50;99.90;;;;;;5032483;28;20033;-72
2023/06/24 04:25:58;;;;;;;40.15;23.70;;;15.50;99.90;;;;;;5044149;28;20027;-73
2023/06/24 04:28:24;;;;;;;41.63;24.02;;;15.50;99.90;;;;;;5042336;28;20025;-71
2023/06/24 04:30:49;;;;;;;40.65;24.33;;;15.60;99.90;;;;;;5044221;28;20485;-70
2023/06/24 04:33:15;;;;;;;39.58;24.98;;;15.60;99.90;;;;;;5043981;28;20041;-70
2023/06/24 04:35:40;;;;;;;44.08;25.17;;;15.60;99.90;;;;;;5026393;28;20037;-71
2023/06/24 04:38:06;;;;;;;41.33;24.48;;;15.60;99.90;;;;;;5042991;28;20080;-70
2023/06/24 04:40:32;;;;;;;46.85;25.65;;;15.60;99.90;;;;;;5043782;28;20053;-71
2023/06/24 04:42:57;;;;;;;43.25;24.27;;;15.70;99.90;;;;;;5043857;28;20434;-70
2023/06/24 04:45:23;;;;;;;50.58;26.60;;;15.70;99.90;;;;;;5044184;28;20025;-71
2023/06/24 04:47:49;;;;;;;43.13;26.60;;;15.80;99.90;;;;;;5043206;28;20027;-72
2023/06/24 04:50:14;;;;;;;45.22;26.50;;;15.80;99.90;;;;;;5042417;28;20041;-74
2023/06/24 04:52:40;;;;;;;46.03;25.85;;;15.90;99.90;;;;;;5008085;28;20026;-71
2023/06/24 04:55:06;;;;;;;49.03;27.85;;;15.80;99.90;;;;;;5027718;28;20028;-71
2023/06/24 04:57:33;;;;;;;55.78;27.85;;;15.90;99.90;;;;;;5033927;28;20026;-69
2023/06/24 04:59:58;;;;;;;49.03;28.08;;;15.90;99.90;;;;;;5034687;28;20069;-71
2023/06/24 05:02:24;;;;;;;47.80;28.10;;;16.00;99.90;;;;;;5042344;28;20048;-70
2023/06/24 05:04:52;;;;;;;44.97;27.65;;;16.00;99.90;;;;;;5043849;28;20025;-72
2023/06/24 05:07:17;;;;;;;43.72;25.90;;;16.00;99.90;;;;;;5042061;28;20021;-71
2023/06/24 05:09:43;;;;;;;51.22;27.20;;;16.10;99.90;;;;;;5036611;28;20030;-69
2023/06/24 05:12:09;;;;;;;41.05;24.95;;;16.20;99.90;;;;;;5041847;28;20127;-71
2023/06/24 05:14:36;;;;;;;45.47;25.25;;;16.20;99.90;;;;;;5042129;28;20513;-71
2023/06/24 05:17:05;;;;;;;45.53;25.00;;;16.30;99.90;;;;;;5041680;28;20025;-70
2023/06/24 05:19:31;;;;;;;41.58;24.52;;;16.30;99.90;;;;;;5042194;28;20044;-72
2023/06/24 05:21:57;;;;;;;41.85;25.50;;;16.30;99.90;;;;;;5042689;28;20038;-72
2023/06/24 05:24:23;;;;;;;44.63;25.10;;;16.40;99.90;;;;;;5043924;28;20044;-70
2023/06/24 05:26:50;;;;;;;43.85;25.40;;;16.30;99.90;;;;;;5043895;28;20026;-71
2023/06/24 05:29:16;;;;;;;43.58;24.52;;;16.40;99.90;;;;;;5043366;28;20440;-71
2023/06/24 05:31:41;;;;;;;38.53;24.10;;;16.50;99.90;;;;;;5047190;28;20060;-69
2023/06/24 05:34:07;;;;;;;38.53;24.58;;;16.50;99.90;;;;;;5047096;28;20024;-71
2023/06/24 05:36:33;;;;;;;47.42;26.27;;;16.50;99.90;;;;;;5046953;28;20083;-71
2023/06/24 05:38:59;;;;;;;42.42;24.95;;;16.60;99.90;;;;;;5046400;28;20053;-71
2023/06/24 05:41:24;;;;;;;43.30;25.15;;;16.70;99.90;;;;;;5045910;28;20057;-69
2023/06/24 05:44:02;;;;;;;42.63;25.73;;;16.70;99.90;;;;;;5047094;28;20030;-69
2023/06/24 05:46:27;;;;;;;46.83;25.33;;;16.70;99.90;;;;;;5047074;28;20028;-71
2023/06/24 05:48:53;;;;;;;44.65;24.70;;;16.70;99.90;;;;;;5046098;28;20034;-75
2023/06/24 05:51:19;;;;;;;38.72;24.58;;;16.70;99.90;;;;;;5045683;28;20018;-69
2023/06/24 05:53:44;;;;;;;41.42;24.77;;;16.80;99.90;;;;;;5046888;28;20052;-71
2023/06/24 05:56:10;;;;;;;43.33;23.95;;;16.80;99.90;;;;;;5046604;28;20044;-71
2023/06/24 05:58:35;;;;;;;43.70;26.38;;;16.80;99.90;;;;;;5046598;28;20026;-72
2023/06/24 06:01:01;;;;;;;42.10;25.80;;;16.90;99.90;;;;;;5046571;28;20065;-71
2023/06/24 06:03:27;;;;;;;43.42;26.25;;;16.80;99.90;;;;;;5046281;28;20029;-72
2023/06/24 06:05:52;;;;;;;42.45;25.27;;;17.00;99.90;;;;;;5046665;28;20056;-72
2023/06/24 06:08:18;;;;;;;42.10;24.55;;;17.00;99.90;;;;;;5046744;28;20057;-71
2023/06/24 06:10:44;;;;;;;36.95;23.63;;;17.10;99.90;;;;;;5044475;28;20028;-72
2023/06/24 06:13:09;;;;;;;32.50;20.90;;;17.10;99.90;;;;;;5046544;28;20038;-70
2023/06/24 06:15:35;;;;;;;33.72;20.10;;;17.20;99.90;;;;;;5046286;28;20029;-75
2023/06/24 06:18:00;;;;;;;31.23;20.02;;;17.30;99.90;;;;;;5033319;28;20454;-71
2023/06/24 06:20:26;;;;;;;36.45;21.30;;;17.20;99.90;;;;;;5046286;28;20049;-75
2023/06/24 06:22:51;;;;;;;38.40;22.77;;;17.20;99.90;;;;;;5046245;28;20056;-72
2023/06/24 06:25:17;;;;;;;36.83;21.42;;;17.30;99.90;;;;;;5046117;28;20456;-70
2023/06/24 06:27:42;;;;;;;43.13;22.08;;;17.30;99.90;;;;;;5043784;28;20029;-72
2023/06/24 06:30:08;;;;;;;38.00;21.88;;;17.40;99.90;;;;;;5025993;28;20497;-71
2023/06/24 06:32:34;;;;;;;43.17;21.20;;;17.50;99.90;;;;;;5026165;28;20101;-71
2023/06/24 06:34:59;;;;;;;34.85;22.42;;;17.60;99.90;;;;;;5026262;28;20030;-71
2023/06/24 06:37:25;;;;;;;36.30;20.80;;;17.70;99.90;;;;;;5026204;28;20025;-70
2023/06/24 06:39:51;;;;;;;37.60;21.63;;;17.60;99.90;;;;;;5008013;28;20053;-71
2023/06/24 06:42:16;;;;;;;39.72;22.25;;;17.70;99.90;;;;;;5008377;28;20025;-70
2023/06/24 06:44:42;;;;;;;37.97;20.05;;;17.80;99.90;;;;;;5025941;28;20379;-71
2023/06/24 06:47:07;;;;;;;33.03;19.75;;;17.90;99.90;;;;;;5025961;28;20057;-71
2023/06/24 06:49:34;;;;;;;35.53;19.95;;;18.00;99.90;;;;;;5026240;28;20069;-71
2023/06/24 06:51:59;;;;;;;35.13;20.02;;;18.00;99.90;;;;;;5044489;28;20049;-71
2023/06/24 06:54:25;;;;;;;43.08;19.95;;;18.10;99.90;;;;;;5045959;28;20064;-73
2023/06/24 06:56:50;;;;;;;33.80;18.90;;;18.20;99.90;;;;;;5046085;28;20037;-72
2023/06/24 06:59:16;;;;;;;30.40;18.30;;;18.20;99.90;;;;;;5044207;28;20096;-72
2023/06/24 07:01:41;;;;;;;29.30;16.00;;;18.30;99.90;;;;;;5045817;28;20034;-71
2023/06/24 07:04:07;;;;;;;36.55;19.60;;;18.40;99.90;;;;;;5044028;28;20026;-73
2023/06/24 07:06:33;;;;;;;31.88;18.60;;;18.40;99.90;;;;;;5044257;28;20033;-68
2023/06/24 07:08:59;;;;;;;30.92;16.90;;;18.50;99.90;;;;;;5045393;28;20414;-69
2023/06/24 07:11:24;;;;;;;31.20;18.17;;;18.50;99.90;;;;;;5043554;28;20045;-70
2023/06/24 07:13:51;;;;;;;26.80;15.43;;;18.60;99.90;;;;;;5045692;28;20364;-70
2023/06/24 07:16:20;;;;;;;36.17;17.73;;;18.60;99.90;;;;;;5045691;28;20022;-71
2023/06/24 07:18:46;;;;;;;29.00;16.23;;;18.70;99.90;;;;;;5043955;28;20056;-71
2023/06/24 07:21:11;;;;;;;27.08;16.00;;;18.80;99.90;;;;;;5045185;28;20065;-72
2023/06/24 07:23:37;;;;;;;26.55;14.02;;;18.90;99.90;;;;;;5045346;28;20036;-70
2023/06/24 07:26:02;;;;;;;23.33;15.20;;;19.00;99.90;;;;;;5043917;28;20060;-70
2023/06/24 07:28:28;;;;;;;26.80;14.43;;;19.10;99.90;;;;;;5027424;28;20080;-72
2023/06/24 07:30:54;;;;;;;30.08;13.82;;;19.20;99.90;;;;;;5041568;28;20053;-70
2023/06/24 07:33:19;;;;;;;26.42;13.65;;;19.20;99.90;;;;;;5037325;28;20061;-73
2023/06/24 07:35:45;;;;;;;18.83;11.23;;;19.30;99.90;;;;;;5025502;28;20069;-71
2023/06/24 07:38:10;;;;;;;22.83;11.32;;;19.40;99.90;;;;;;5031754;28;20568;-69
2023/06/24 07:40:36;;;;;;;20.27;10.88;;;19.50;99.90;;;;;;5026785;28;20055;-71
2023/06/24 07:43:01;;;;;;;24.17;11.00;;;19.60;99.90;;;;;;5042571;28;20022;-70
2023/06/24 07:45:27;;;;;;;24.55;12.02;;;19.60;99.90;;;;;;5043054;28;20036;-71
2023/06/24 07:47:53;;;;;;;15.48;9.52;;;19.70;99.90;;;;;;5026097;28;20032;-71
2023/06/24 07:50:18;;;;;;;17.63;9.85;;;19.80;99.90;;;;;;5024879;28;20037;-74
2023/06/24 07:52:44;;;;;;;17.52;10.73;;;19.80;99.90;;;;;;5046254;28;20085;-71
2023/06/24 07:55:10;;;;;;;20.08;11.48;;;19.90;99.90;;;;;;5038027;28;20030;-69
2023/06/24 07:57:36;;;;;;;18.25;10.98;;;20.00;99.90;;;;;;5009716;28;20036;-74
2023/06/24 08:00:02;;;;;;;18.40;10.52;;;20.00;99.90;;;;;;5033137;28;20112;-71
2023/06/24 08:02:28;;;;;;;21.45;10.75;;;20.10;99.90;;;;;;5043399;28;20158;-70
2023/06/24 08:04:55;;;;;;;22.05;10.70;;;20.20;99.90;;;;;;5042955;28;20421;-74
2023/06/24 08:07:21;;;;;;;16.80;10.27;;;20.30;99.90;;;;;;5025704;28;20405;-72
2023/06/24 08:09:46;;;;;;;18.02;10.07;;;20.30;99.90;;;;;;5035755;28;20839;-70
2023/06/24 08:12:12;;;;;;;18.85;11.02;;;20.40;99.90;;;;;;5023131;28;20033;-70
2023/06/24 08:14:37;;;;;;;19.92;10.70;;;20.40;99.90;;;;;;5040852;28;20017;-69
2023/06/24 08:17:03;;;;;;;25.48;11.85;;;20.50;99.90;;;;;;5040090;28;20589;-71
2023/06/24 08:19:29;;;;;;;20.50;10.80;;;20.60;99.90;;;;;;5026701;28;20032;-72
2023/06/24 08:21:54;;;;;;;19.23;11.27;;;20.70;99.90;;;;;;5034597;28;20076;-72
2023/06/24 08:24:20;;;;;;;17.20;11.52;;;20.80;99.90;;;;;;5040767;28;20040;-75
2023/06/24 08:26:46;;;;;;;23.35;12.25;;;20.90;99.90;;;;;;5028746;28;20577;-72
2023/06/24 08:29:11;;;;;;;19.92;11.85;;;20.90;99.90;;;;;;5043023;28;20040;-72
2023/06/24 08:31:37;;;;;;;17.58;11.65;;;20.90;99.90;;;;;;5043957;28;20029;-72
2023/06/24 08:34:02;;;;;;;19.73;11.63;;;21.00;99.90;;;;;;5031095;28;20723;-74
2023/06/24 08:36:29;;;;;;;18.80;11.07;;;21.10;99.90;;;;;;5028196;28;20040;-73
2023/06/24 08:38:55;;;;;;;20.08;10.95;;;21.10;99.90;;;;;;5038857;28;20046;-74
2023/06/24 08:41:22;;;;;;;16.17;10.82;;;21.20;99.90;;;;;;5041994;28;20060;-72
2023/06/24 08:43:47;;;;;;;17.55;11.50;;;21.30;99.90;;;;;;5033994;28;20037;-72
2023/06/24 08:46:15;;;;;;;18.00;9.50;;;21.30;99.90;;;;;;5029385;28;20025;-73
2023/06/24 08:48:42;;;;;;;15.63;9.23;;;21.40;99.90;;;;;;5027659;28;20029;-71
2023/06/24 08:51:09;;;;;;;17.38;10.10;;;21.50;99.90;;;;;;5010791;28;20060;-73
2023/06/24 08:53:37;;;;;;;18.23;10.02;;;21.50;99.90;;;;;;5043785;28;20024;-70
2023/06/24 08:56:04;;;;;;;16.02;9.77;;;21.60;99.90;;;;;;5044139;28;20018;-71
2023/06/24 08:58:30;;;;;;;15.43;10.25;;;21.70;99.90;;;;;;5035740;28;20029;-72
2023/06/24 09:00:55;;;;;;;14.93;6.82;;;21.80;99.90;;;;;;5044029;28;20045;-72
2023/06/24 09:03:22;;;;;;;19.85;7.25;;;21.80;99.90;;;;;;5040289;28;20036;-70
2023/06/24 09:05:48;;;;;;;14.88;6.75;;;21.80;99.90;;;;;;5040938;28;20032;-71
2023/06/24 09:08:15;;;;;;;13.27;6.88;;;21.90;99.90;;;;;;5039123;28;20498;-72
2023/06/24 09:10:41;;;;;;;8.73;6.18;;;22.00;99.90;;;;;;5028609;28;20033;-72
2023/06/24 09:13:07;;;;;;;9.90;6.30;;;22.10;99.90;;;;;;5040508;28;20045;-72
2023/06/24 09:15:37;;;;;;;10.10;5.53;;;22.10;99.90;;;;;;5044260;28;20045;-73
2023/06/24 09:18:04;;;;;;;10.48;5.47;;;22.30;99.90;;;;;;5027222;28;20461;-75
2023/06/24 09:20:31;;;;;;;9.10;5.72;;;22.30;99.90;;;;;;5019111;28;20442;-72
2023/06/24 09:23:01;;;;;;;8.27;6.10;;;22.40;99.90;;;;;;5038685;28;20081;-75
2023/06/24 09:25:27;;;;;;;8.38;6.10;;;22.40;99.90;;;;;;5034935;28;20410;-73
2023/06/24 09:27:52;;;;;;;7.82;5.63;;;22.40;99.90;;;;;;5018210;28;20032;-74
2023/06/24 09:30:22;;;;;;;8.13;5.25;;;22.40;99.90;;;;;;5022881;28;20069;-72
2023/06/24 09:32:48;;;;;;;11.45;6.10;;;22.40;99.90;;;;;;5035354;28;20033;-75
2023/06/24 09:35:17;;;;;;;9.90;5.75;;;22.50;99.90;;;;;;5020392;28;20033;-70
2023/06/24 09:37:43;;;;;;;11.15;5.93;;;22.50;99.90;;;;;;5024847;28;20029;-74
2023/06/24 09:40:10;;;;;;;7.90;5.85;;;22.60;99.90;;;;;;5022190;28;20049;-71
2023/06/24 09:42:35;;;;;;;7.93;5.82;;;22.70;99.90;;;;;;5040490;28;20084;-70
2023/06/24 09:45:05;;;;;;;9.10;5.80;;;22.80;99.90;;;;;;5026942;28;20021;-72
2023/06/24 09:47:31;;;;;;;9.70;6.10;;;22.90;99.90;;;;;;5042925;28;20025;-70
2023/06/24 09:49:57;;;;;;;9.50;6.03;;;22.90;99.90;;;;;;5044835;28;20041;-74
2023/06/24 09:52:24;;;;;;;11.18;6.57;;;23.00;99.90;;;;;;5027779;28;20086;-75
2023/06/24 09:54:54;;;;;;;9.70;6.50;;;23.10;99.90;;;;;;5045542;28;20040;-72
2023/06/24 09:57:28;;;;;;;10.98;5.93;;;23.10;99.90;;;;;;5026251;28;20032;-71
2023/06/24 09:59:54;;;;;;;11.38;6.20;;;23.10;99.90;;;;;;5028162;28;20092;-69
2023/06/24 10:02:20;;;;;;;10.68;6.30;;;23.20;99.90;;;;;;5043559;28;20021;-74
2023/06/24 10:04:47;;;;;;;11.23;6.00;;;23.20;99.90;;;;;;5029893;28;20034;-70
2023/06/24 10:07:14;;;;;;;10.25;6.70;;;23.20;99.90;;;;;;5045517;28;20013;-71
2023/06/24 10:09:40;;;;;;;12.57;6.13;;;23.30;99.90;;;;;;5041704;28;20537;-69
2023/06/24 10:12:06;;;;;;;9.38;5.57;;;23.40;99.90;;;;;;5046070;28;20017;-71
2023/06/24 10:14:32;;;;;;;10.07;6.05;;;23.50;99.90;;;;;;5043766;28;20033;-72
2023/06/24 10:17:03;;;;;;;11.18;5.97;;;23.60;99.90;;;;;;5044417;28;20060;-71
2023/06/24 10:19:28;;;;;;;9.30;6.63;;;23.60;99.90;;;;;;5046379;28;20032;-71
2023/06/24 10:21:58;;;;;;;8.65;6.05;;;23.70;99.90;;;;;;5028350;28;20398;-72
2023/06/24 10:24:35;;;;;;;12.50;7.15;;;23.80;99.90;;;;;;5046411;28;20021;-74
2023/06/24 10:27:07;;;;;;;10.70;5.88;;;23.90;99.90;;;;;;5046286;28;20035;-72
2023/06/24 10:29:37;;;;;;;10.57;6.35;;;23.90;99.90;;;;;;5043786;28;20037;-71
2023/06/24 10:32:07;;;;;;;9.82;6.35;;;24.00;99.90;;;;;;5045971;28;20105;-69
2023/06/24 10:34:34;;;;;;;9.80;6.25;;;24.10;99.90;;;;;;5046312;28;20072;-72
2023/06/24 10:37:02;;;;;;;10.68;6.70;;;24.10;99.90;;;;;;5040879;28;20022;-72
2023/06/24 10:39:37;;;;;;;10.00;6.50;;;24.20;99.90;;;;;;5040292;28;20538;-69
2023/06/24 10:42:31;;;;;;;9.57;6.30;;;24.30;99.90;;;;;;5040015;28;20441;-70
2023/06/24 10:45:18;;;;;;;11.35;6.88;;;24.40;99.90;;;;;;5023432;28;20038;-71
2023/06/24 10:47:48;;;;;;;9.05;7.55;;;24.50;99.90;;;;;;5046395;28;20550;-71
2023/06/24 10:50:17;;;;;;;8.82;6.18;;;24.50;99.90;;;;;;5045512;28;20675;-72
2023/06/24 10:52:48;;;;;;;12.88;7.03;;;24.60;99.90;;;;;;5027784;28;20125;-74
2023/06/24 10:55:16;;;;;;;10.30;6.85;;;24.60;99.90;;;;;;5045776;28;20029;-69
2023/06/24 10:57:41;;;;;;;10.98;6.80;;;24.70;99.90;;;;;;5045387;28;20029;-73
2023/06/24 11:00:07;;;;;;;11.02;6.97;;;24.70;99.90;;;;;;5027569;28;20045;-71
2023/06/24 11:02:33;;;;;;;9.13;6.85;;;24.90;99.90;;;;;;5027301;28;20033;-69
2023/06/24 11:05:00;;;;;;;11.77;6.80;;;25.00;99.90;;;;;;5045416;28;20378;-71
2023/06/24 11:07:31;;;;;;;9.07;6.88;;;25.00;99.90;;;;;;5027840;28;20029;-75
2023/06/24 11:10:00;;;;;;;9.60;6.53;;;25.10;99.90;;;;;;5045311;28;20040;-74
2023/06/24 11:12:28;;;;;;;11.85;6.35;;;25.20;99.90;;;;;;5027704;28;20029;-73
2023/06/24 11:14:59;;;;;;;11.02;5.95;;;25.10;99.90;;;;;;5045525;28;20116;-72
2023/06/24 11:17:25;;;;;;;10.13;6.70;;;25.20;99.90;;;;;;5027407;28;20558;-73
2023/06/24 11:19:55;;;;;;;9.88;7.05;;;25.30;99.90;;;;;;5027350;28;20071;-72
2023/06/24 11:22:22;;;;;;;9.80;7.05;;;25.30;99.90;;;;;;5027681;28;20040;-76
2023/06/24 11:24:48;;;;;;;13.63;7.32;;;25.40;99.90;;;;;;5045044;28;20025;-70
2023/06/24 11:27:13;;;;;;;9.27;6.80;;;25.50;99.90;;;;;;5042789;28;20030;-69
2023/06/24 11:29:39;;;;;;;9.75;7.40;;;25.70;99.90;;;;;;5042379;28;20504;-70
2023/06/24 11:32:08;;;;;;;9.27;6.50;;;25.90;99.90;;;;;;5043677;28;20025;-72
2023/06/24 11:34:34;;;;;;;11.00;7.03;;;25.80;99.90;;;;;;5025808;28;20025;-74
2023/06/24 11:37:12;;;;;;;13.00;7.25;;;25.80;99.90;;;;;;5038060;28;20021;-70
2023/06/24 11:39:38;;;;;;;11.32;6.88;;;25.90;99.90;;;;;;5042762;28;20073;-72
2023/06/24 11:42:07;;;;;;;9.95;7.00;;;26.00;99.90;;;;;;5043295;28;20029;-71
2023/06/24 11:44:32;;;;;;;9.38;6.93;;;26.20;99.90;;;;;;5039036;28;20057;-70
2023/06/24 11:47:08;;;;;;;8.38;6.53;;;26.40;99.90;;;;;;5027581;28;20034;-71
2023/06/24 11:50:00;;;;;;;8.32;6.00;;;26.60;99.90;;;;;;5029345;28;20037;-70
2023/06/24 11:52:48;;;;;;;9.25;6.43;;;26.60;99.90;;;;;;5011367;28;20698;-70
2023/06/24 11:55:23;;;;;;;10.90;6.68;;;26.70;99.90;;;;;;5034108;28;20029;-70
2023/06/24 11:57:57;;;;;;;8.10;5.80;;;26.50;99.90;;;;;;5029534;28;20034;-71
2023/06/24 12:00:28;;;;;;;10.35;7.07;;;26.20;99.90;;;;;;5027329;28;20046;-71
2023/06/24 12:02:58;;;;;;;8.63;6.75;;;26.30;99.90;;;;;;5035656;28;20148;-72
2023/06/24 12:05:28;;;;;;;11.18;6.95;;;26.30;99.90;;;;;;5023930;28;20033;-71
2023/06/24 12:07:58;;;;;;;8.30;6.30;;;26.60;99.90;;;;;;5014422;28;20057;-72
2023/06/24 12:10:24;;;;;;;10.70;5.95;;;26.70;99.90;;;;;;5043615;28;20036;-71
2023/06/24 12:12:51;;;;;;;11.10;6.38;;;26.80;99.90;;;;;;5025126;28;20052;-71
2023/06/24 12:15:16;;;;;;;10.32;6.10;;;26.90;99.90;;;;;;5044778;28;20038;-68
2023/06/24 12:17:42;;;;;;;8.77;6.22;;;27.00;99.90;;;;;;5040102;28;20041;-70
2023/06/24 12:20:09;;;;;;;9.48;5.65;;;27.10;99.90;;;;;;5032038;28;20045;-71
2023/06/24 12:22:35;;;;;;;8.43;6.07;;;27.20;99.90;;;;;;5027900;28;20469;-68
2023/06/24 12:25:01;;;;;;;8.88;5.90;;;27.30;99.90;;;;;;5023728;28;20037;-70
2023/06/24 12:27:26;;;;;;;8.40;6.75;;;27.50;99.90;;;;;;5031782;28;20042;-74
2023/06/24 12:29:52;;;;;;;11.40;6.90;;;27.50;99.90;;;;;;5026039;28;20120;-72
2023/06/24 12:32:17;;;;;;;8.45;6.78;;;27.60;99.90;;;;;;5043586;28;20089;-71